createdAt,value
2022-10-11T00:01:33.991Z,102510.00
2022-10-11T00:04:00.529Z,102513.00
2022-10-11T00:06:26.979Z,102515.00
2022-10-11T00:08:53.439Z,102514.00
2022-10-11T00:11:19.811Z,102512.00
2022-10-11T00:13:46.283Z,102511.00
2022-10-11T00:16:14.222Z,102510.00
2022-10-11T00:18:41.058Z,102518.00
2022-10-11T00:21:08.732Z,102506.00
2022-10-11T00:23:35.478Z,102516.00
2022-10-11T00:26:03.284Z,102517.00
2022-10-11T00:28:30.513Z,102519.00
2022-10-11T00:30:57.007Z,102521.00
2022-10-11T00:33:23.536Z,102524.00
2022-10-11T00:35:49.985Z,102525.00
2022-10-11T00:38:16.580Z,102531.00
2022-10-11T00:40:43.471Z,102531.00
2022-10-11T00:43:20.711Z,102526.00
2022-10-11T00:45:47.565Z,102535.00
2022-10-11T00:48:21.528Z,102542.00
2022-10-11T00:50:48.087Z,102547.00
2022-10-11T00:53:14.513Z,102549.00
2022-10-11T00:55:47.116Z,102546.00
2022-10-11T00:58:13.822Z,102549.00
2022-10-11T01:00:40.317Z,102549.00
2022-10-11T01:03:06.919Z,102553.00
2022-10-11T01:05:33.296Z,102550.00
2022-10-11T01:08:00.301Z,102552.00
2022-10-11T01:10:27.476Z,102549.00
2022-10-11T01:13:07.091Z,102543.00
2022-10-11T01:15:42.279Z,102547.00
2022-10-11T01:18:08.661Z,102548.00
2022-10-11T01:20:35.272Z,102548.00
2022-10-11T01:23:01.691Z,102548.00
2022-10-11T01:25:46.177Z,102548.00
2022-10-11T01:28:24.812Z,102548.00
2022-10-11T01:30:51.599Z,102543.00
2022-10-11T01:33:35.591Z,102540.00
2022-10-11T01:36:10.884Z,102554.00
2022-10-11T01:38:56.033Z,102542.00
2022-10-11T01:41:27.488Z,102551.00
2022-10-11T01:43:56.300Z,102551.00
2022-10-11T01:46:23.827Z,102548.00
2022-10-11T01:48:55.283Z,102553.00
2022-10-11T01:51:23.528Z,102552.00
2022-10-11T01:53:55.899Z,102566.00
2022-10-11T01:56:28.400Z,102559.00
2022-10-11T01:59:13.633Z,102562.00
2022-10-11T02:01:40.062Z,102560.00
2022-10-11T02:04:28.765Z,102568.00
2022-10-11T02:07:06.039Z,102565.00
2022-10-11T02:09:39.468Z,102568.00
2022-10-11T02:12:07.651Z,102571.00
2022-10-11T02:14:42.800Z,102562.00
2022-10-11T02:17:14.026Z,102563.00
2022-10-11T02:19:45.623Z,102562.00
2022-10-11T02:22:17.581Z,102562.00
2022-10-11T02:24:46.383Z,102556.00
2022-10-11T02:27:13.651Z,102554.00
2022-10-11T02:29:41.666Z,102548.00
2022-10-11T02:32:09.319Z,102551.00
2022-10-11T02:34:37.371Z,102545.00
2022-10-11T02:37:10.198Z,102553.00
2022-10-11T02:39:48.558Z,102549.00
2022-10-11T02:42:18.323Z,102552.00
2022-10-11T02:44:46.822Z,102547.00
2022-10-11T02:47:14.099Z,102555.00
2022-10-11T02:49:40.545Z,102553.00
2022-10-11T02:52:07.067Z,102552.00
2022-10-11T02:54:33.564Z,102550.00
2022-10-11T02:56:59.974Z,102547.00
2022-10-11T02:59:26.416Z,102552.00
2022-10-11T03:01:52.910Z,102552.00
2022-10-11T03:04:19.430Z,102552.00
2022-10-11T03:06:45.835Z,102559.00
2022-10-11T03:09:12.245Z,102548.00
2022-10-11T03:11:38.684Z,102552.00
2022-10-11T03:14:05.108Z,102538.00
2022-10-11T03:16:31.548Z,102540.00
2022-10-11T03:18:57.931Z,102546.00
2022-10-11T03:21:25.233Z,102552.00
2022-10-11T03:23:51.728Z,102548.00
2022-10-11T03:26:18.181Z,102549.00
2022-10-11T03:28:44.705Z,102548.00
2022-10-11T03:31:11.489Z,102555.00
2022-10-11T03:33:37.898Z,102556.00
2022-10-11T03:36:04.794Z,102547.00
2022-10-11T03:38:31.445Z,102543.00
2022-10-11T03:40:57.872Z,102556.00
2022-10-11T03:43:24.309Z,102559.00
2022-10-11T03:45:50.670Z,102557.00
2022-10-11T03:48:17.070Z,102563.00
2022-10-11T03:50:43.548Z,102558.00
2022-10-11T03:53:09.989Z,102560.00
2022-10-11T03:55:38.229Z,102570.00
2022-10-11T03:58:04.675Z,102567.00
2022-10-11T04:00:32.178Z,102565.00
2022-10-11T04:02:59.257Z,102567.00
2022-10-11T04:05:25.644Z,102571.00
2022-10-11T04:07:52.204Z,102563.00
2022-10-11T04:10:18.699Z,102566.00
2022-10-11T04:12:45.128Z,102571.00
2022-10-11T04:15:13.390Z,102574.00
2022-10-11T04:17:40.210Z,102560.00
2022-10-11T04:20:07.220Z,102573.00
2022-10-11T04:22:33.827Z,102575.00
2022-10-11T04:25:00.438Z,102579.00
2022-10-11T04:27:27.640Z,102576.00
2022-10-11T04:29:54.073Z,102572.00
2022-10-11T04:32:20.560Z,102586.00
2022-10-11T04:34:47.070Z,102590.00
2022-10-11T04:37:13.778Z,102581.00
2022-10-11T04:39:40.251Z,102591.00
2022-10-11T04:42:06.644Z,102592.00
2022-10-11T04:44:33.081Z,102603.00
2022-10-11T04:46:59.504Z,102602.00
2022-10-11T04:49:25.972Z,102603.00
2022-10-11T04:51:52.393Z,102606.00
2022-10-11T04:54:18.850Z,102598.00
2022-10-11T04:56:45.328Z,102594.00
2022-10-11T04:59:11.820Z,102601.00
2022-10-11T05:01:38.409Z,102601.00
2022-10-11T05:04:04.945Z,102608.00
2022-10-11T05:06:31.628Z,102605.00
2022-10-11T05:08:58.067Z,102607.00
2022-10-11T05:11:24.599Z,102613.00
2022-10-11T05:13:53.711Z,102594.00
2022-10-11T05:16:20.123Z,102606.00
2022-10-11T05:18:46.572Z,102610.00
2022-10-11T05:21:23.759Z,102608.00
2022-10-11T05:23:50.651Z,102613.00
2022-10-11T05:26:17.861Z,102613.00
2022-10-11T05:28:44.563Z,102612.00
2022-10-11T05:31:11.318Z,102618.00
2022-10-11T05:33:37.964Z,102616.00
2022-10-11T05:36:04.966Z,102617.00
2022-10-11T05:38:31.745Z,102616.00
2022-10-11T05:41:01.620Z,102625.00
2022-10-11T05:43:28.282Z,102621.00
2022-10-11T05:45:55.032Z,102623.00
2022-10-11T05:48:21.727Z,102627.00
2022-10-11T05:50:48.187Z,102622.00
2022-10-11T05:53:14.593Z,102620.00
2022-10-11T05:55:41.868Z,102624.00
2022-10-11T05:58:10.227Z,102628.00
2022-10-11T06:00:38.013Z,102630.00
2022-10-11T06:03:08.387Z,102628.00
2022-10-11T06:05:35.199Z,102619.00
2022-10-11T06:08:02.290Z,102631.00
2022-10-11T06:10:28.799Z,102630.00
2022-10-11T06:12:55.433Z,102634.00
2022-10-11T06:15:21.885Z,102632.00
2022-10-11T06:17:48.398Z,102639.00
2022-10-11T06:20:15.011Z,102635.00
2022-10-11T06:22:41.501Z,102640.00
2022-10-11T06:25:08.300Z,102644.00
2022-10-11T06:27:34.715Z,102642.00
2022-10-11T06:30:01.164Z,102643.00
2022-10-11T06:32:27.640Z,102654.00
2022-10-11T06:34:54.141Z,102659.00
2022-10-11T06:37:20.616Z,102656.00
2022-10-11T06:39:47.008Z,102665.00
2022-10-11T06:42:13.505Z,102657.00
2022-10-11T06:44:39.906Z,102667.00
2022-10-11T06:47:06.730Z,102675.00
2022-10-11T06:49:33.562Z,102669.00
2022-10-11T06:52:00.014Z,102677.00
2022-10-11T06:54:26.490Z,102674.00
2022-10-11T06:56:52.990Z,102679.00
2022-10-11T06:59:19.860Z,102676.00
2022-10-11T07:01:46.414Z,102687.00
2022-10-11T07:04:12.879Z,102682.00
2022-10-11T07:06:40.509Z,102686.00
2022-10-11T07:09:07.458Z,102689.00
2022-10-11T07:11:33.927Z,102695.00
2022-10-11T07:14:01.879Z,102690.00
2022-10-11T07:16:28.851Z,102692.00
2022-10-11T07:19:00.111Z,102698.00
2022-10-11T07:21:27.615Z,102702.00
2022-10-11T07:23:54.132Z,102700.00
2022-10-11T07:26:20.705Z,102696.00
2022-10-11T07:28:47.471Z,102706.00
2022-10-11T07:31:15.654Z,102703.00
2022-10-11T07:33:42.143Z,102706.00
2022-10-11T07:36:09.300Z,102713.00
2022-10-11T07:38:38.338Z,102710.00
2022-10-11T07:41:05.952Z,102710.00
2022-10-11T07:43:32.433Z,102708.00
2022-10-11T07:46:04.404Z,102718.00
2022-10-11T07:48:31.922Z,102711.00
2022-10-11T07:51:02.251Z,102713.00
2022-10-11T07:53:28.737Z,102711.00
2022-10-11T07:55:55.197Z,102711.00
2022-10-11T07:58:21.611Z,102720.00
2022-10-11T08:00:52.680Z,102715.00
2022-10-11T08:03:19.228Z,102716.00
2022-10-11T08:05:45.809Z,102717.00
2022-10-11T08:08:12.256Z,102716.00
2022-10-11T08:10:39.235Z,102713.00
2022-10-11T08:13:05.738Z,102714.00
2022-10-11T08:15:32.388Z,102723.00
2022-10-11T08:17:58.846Z,102722.00
2022-10-11T08:20:25.330Z,102722.00
2022-10-11T08:22:51.836Z,102720.00
2022-10-11T08:25:18.320Z,102723.00
2022-10-11T08:27:44.779Z,102724.00
2022-10-11T08:30:11.565Z,102732.00
2022-10-11T08:32:38.171Z,102722.00
2022-10-11T08:35:04.866Z,102730.00
2022-10-11T08:37:31.513Z,102717.00
2022-10-11T08:39:57.948Z,102724.00
2022-10-11T08:42:30.622Z,102719.00
2022-10-11T08:45:12.273Z,102728.00
2022-10-11T08:47:45.744Z,102723.00
2022-10-11T08:50:23.176Z,102718.00
2022-10-11T08:52:55.618Z,102723.00
2022-10-11T08:55:39.305Z,102730.00
2022-10-11T08:58:06.147Z,102731.00
2022-10-11T09:00:33.973Z,102722.00
2022-10-11T09:03:19.183Z,102718.00
2022-10-11T09:06:04.746Z,102726.00
2022-10-11T09:08:43.335Z,102731.00
2022-10-11T09:11:09.779Z,102737.00
2022-10-11T09:13:56.459Z,102733.00
2022-10-11T09:16:30.485Z,102726.00
2022-10-11T09:19:15.301Z,102734.00
2022-10-11T09:21:52.061Z,102737.00
2022-10-11T09:24:18.481Z,102736.00
2022-10-11T09:26:44.873Z,102738.00
2022-10-11T09:29:11.555Z,102738.00
2022-10-11T09:31:38.062Z,102738.00
2022-10-11T09:34:12.132Z,102738.00
2022-10-11T09:36:57.493Z,102734.00
2022-10-11T09:39:31.585Z,102729.00
2022-10-11T09:42:01.473Z,102737.00
2022-10-11T09:44:29.617Z,102734.00
2022-10-11T09:46:56.421Z,102735.00
2022-10-11T09:49:25.406Z,102726.00
2022-10-11T09:51:53.401Z,102734.00
2022-10-11T09:54:22.315Z,102725.00
2022-10-11T09:56:48.774Z,102735.00
2022-10-11T09:59:18.335Z,102727.00
2022-10-11T10:01:44.888Z,102729.00
2022-10-11T10:04:12.921Z,102738.00
2022-10-11T10:06:40.166Z,102731.00
2022-10-11T10:09:26.719Z,102730.00
2022-10-11T10:11:54.706Z,102733.00
2022-10-11T10:14:27.030Z,102729.00
2022-10-11T10:17:01.604Z,102729.00
2022-10-11T10:19:28.437Z,102726.00
2022-10-11T10:21:55.957Z,102728.00
2022-10-11T10:24:28.193Z,102725.00
2022-10-11T10:27:06.734Z,102730.00
2022-10-11T10:29:33.213Z,102724.00
2022-10-11T10:32:13.976Z,102721.00
2022-10-11T10:35:01.304Z,102722.00
2022-10-11T10:37:36.455Z,102732.00
2022-10-11T10:40:05.758Z,102729.00
2022-10-11T10:42:32.705Z,102729.00
2022-10-11T10:45:00.158Z,102730.00
2022-10-11T10:47:26.592Z,102731.00
2022-10-11T10:50:01.793Z,102730.00
2022-10-11T10:52:28.228Z,102729.00
2022-10-11T10:55:08.240Z,102723.00
2022-10-11T10:57:55.556Z,102731.00
2022-10-11T11:00:23.511Z,102725.00
2022-10-11T11:02:58.779Z,102722.00
2022-10-11T11:05:43.834Z,102722.00
2022-10-11T11:08:33.329Z,102717.00
2022-10-11T11:11:09.346Z,102718.00
2022-10-11T11:13:38.804Z,102722.00
2022-10-11T11:16:18.896Z,102723.00
2022-10-11T11:18:45.267Z,102725.00
2022-10-11T11:21:30.066Z,102721.00
2022-10-11T11:24:03.534Z,102718.00
2022-10-11T11:26:48.912Z,102715.00
2022-10-11T11:29:34.015Z,102712.00
2022-10-11T11:32:05.367Z,102711.00
2022-10-11T11:34:52.119Z,102712.00
2022-10-11T11:37:23.725Z,102707.00
2022-10-11T11:39:51.848Z,102712.00
2022-10-11T11:42:21.821Z,102701.00
2022-10-11T11:44:49.392Z,102704.00
2022-10-11T11:47:28.268Z,102693.00
2022-10-11T11:50:15.233Z,102711.00
2022-10-11T11:52:45.710Z,102705.00
2022-10-11T11:55:12.306Z,102695.00
2022-10-11T11:57:57.560Z,102699.00
2022-10-11T12:00:27.149Z,102692.00
2022-10-11T12:02:57.238Z,102698.00
2022-10-11T12:05:27.888Z,102682.00
2022-10-11T12:07:56.632Z,102687.00
2022-10-11T12:10:46.280Z,102688.00
2022-10-11T12:13:12.680Z,102688.00
2022-10-11T12:15:39.176Z,102683.00
2022-10-11T12:18:13.275Z,102687.00
2022-10-11T12:20:41.713Z,102682.00
2022-10-11T12:23:26.874Z,102678.00
2022-10-11T12:26:12.175Z,102678.00
2022-10-11T12:28:42.165Z,102683.00
2022-10-11T12:31:19.572Z,102683.00
2022-10-11T12:33:45.938Z,102684.00
2022-10-11T12:36:31.125Z,102674.00
2022-10-11T12:39:16.478Z,102681.00
2022-10-11T12:41:53.735Z,102679.00
2022-10-11T12:44:26.990Z,102672.00
2022-10-11T12:46:53.738Z,102667.00
2022-10-11T12:49:38.310Z,102670.00
2022-10-11T12:52:17.212Z,102671.00
2022-10-11T12:55:09.672Z,102672.00
2022-10-11T12:57:48.164Z,102672.00
2022-10-11T13:00:26.021Z,102670.00
2022-10-11T13:02:52.557Z,102669.00
2022-10-11T13:05:26.564Z,102669.00
2022-10-11T13:07:54.791Z,102664.00
2022-10-11T13:10:43.960Z,102663.00
2022-10-11T13:13:18.597Z,102658.00
2022-10-11T13:15:45.440Z,102659.00
2022-10-11T13:18:13.627Z,102649.00
2022-10-11T13:20:42.437Z,102650.00
2022-10-11T13:23:28.331Z,102656.00
2022-10-11T13:25:55.466Z,102648.00
2022-10-11T13:28:22.681Z,102644.00
2022-10-11T13:30:58.442Z,102641.00
2022-10-11T13:33:26.873Z,102640.00
2022-10-11T13:35:53.482Z,102638.00
2022-10-11T13:38:22.122Z,102635.00
2022-10-11T13:40:51.132Z,102639.00
2022-10-11T13:43:20.611Z,102630.00
2022-10-11T13:45:47.198Z,102630.00
2022-10-11T13:48:14.891Z,102628.00
2022-10-11T13:50:46.130Z,102638.00
2022-10-11T13:53:12.498Z,102630.00
2022-10-11T13:55:41.646Z,102638.00
2022-10-11T13:58:23.198Z,102625.00
2022-10-11T14:00:54.458Z,102630.00
2022-10-11T14:03:21.332Z,102626.00
2022-10-11T14:05:55.548Z,102625.00
2022-10-11T14:08:25.242Z,102629.00
2022-10-11T14:10:56.717Z,102626.00
2022-10-11T14:13:35.530Z,102620.00
2022-10-11T14:16:08.464Z,102617.00
2022-10-11T14:18:51.890Z,102613.00
2022-10-11T14:21:27.162Z,102619.00
2022-10-11T14:23:54.809Z,102610.00
2022-10-11T14:26:22.606Z,102612.00
2022-10-11T14:28:51.216Z,102609.00
2022-10-11T14:31:17.723Z,102611.00
2022-10-11T14:33:44.196Z,102604.00
2022-10-11T14:36:10.627Z,102608.00
2022-10-11T14:38:37.073Z,102611.00
2022-10-11T14:41:03.817Z,102613.00
2022-10-11T14:43:30.260Z,102608.00
2022-10-11T14:45:56.663Z,102612.00
2022-10-11T14:48:43.213Z,102606.00
2022-10-11T14:51:11.992Z,102611.00
2022-10-11T14:53:42.061Z,102610.00
2022-10-11T14:56:08.828Z,102603.00
2022-10-11T14:58:35.384Z,102603.00
2022-10-11T15:01:01.837Z,102607.00
2022-10-11T15:03:28.244Z,102604.00
2022-10-11T15:05:54.787Z,102603.00
2022-10-11T15:08:21.205Z,102601.00
2022-10-11T15:10:49.393Z,102605.00
2022-10-11T15:13:15.823Z,102607.00
2022-10-11T15:15:42.813Z,102600.00
2022-10-11T15:18:12.397Z,102607.00
2022-10-11T15:20:40.779Z,102601.00
2022-10-11T15:23:09.498Z,102597.00
2022-10-11T15:25:37.642Z,102597.00
2022-10-11T15:28:04.288Z,102598.00
2022-10-11T15:30:34.855Z,102594.00
2022-10-11T15:33:04.046Z,102601.00
2022-10-11T15:35:30.732Z,102599.00
2022-10-11T15:37:58.483Z,102597.00
2022-10-11T15:40:26.320Z,102599.00
2022-10-11T15:42:53.592Z,102594.00
2022-10-11T15:45:20.443Z,102589.00
2022-10-11T15:47:47.337Z,102593.00
2022-10-11T15:50:15.784Z,102594.00
2022-10-11T15:52:42.272Z,102585.00
2022-10-11T15:55:08.740Z,102597.00
2022-10-11T15:57:35.176Z,102598.00
2022-10-11T16:00:01.649Z,102587.00
2022-10-11T16:02:28.503Z,102586.00
2022-10-11T16:04:54.945Z,102579.00
2022-10-11T16:07:21.371Z,102577.00
2022-10-11T16:09:47.784Z,102581.00
2022-10-11T16:12:14.180Z,102573.00
2022-10-11T16:14:44.865Z,102583.00
2022-10-11T16:17:13.426Z,102580.00
2022-10-11T16:19:39.887Z,102580.00
2022-10-11T16:22:06.270Z,102565.00
2022-10-11T16:24:32.776Z,102578.00
2022-10-11T16:26:59.231Z,102581.00
2022-10-11T16:29:25.736Z,102582.00
2022-10-11T16:31:52.304Z,102584.00
2022-10-11T16:34:18.740Z,102576.00
2022-10-11T16:36:45.869Z,102580.00
2022-10-11T16:39:13.638Z,102572.00
2022-10-11T16:41:40.432Z,102577.00
2022-10-11T16:44:07.359Z,102576.00
2022-10-11T16:46:34.081Z,102574.00
2022-10-11T16:49:00.687Z,102573.00
2022-10-11T16:51:27.145Z,102578.00
2022-10-11T16:53:53.729Z,102577.00
2022-10-11T16:56:22.611Z,102577.00
2022-10-11T16:58:49.377Z,102579.00
2022-10-11T17:01:15.963Z,102580.00
2022-10-11T17:03:42.459Z,102580.00
2022-10-11T17:06:09.349Z,102577.00
2022-10-11T17:08:36.136Z,102580.00
2022-10-11T17:11:03.049Z,102577.00
2022-10-11T17:13:29.853Z,102574.00
2022-10-11T17:15:56.690Z,102573.00
2022-10-11T17:18:23.080Z,102569.00
2022-10-11T17:20:49.810Z,102569.00
2022-10-11T17:23:16.286Z,102565.00
2022-10-11T17:25:43.896Z,102561.00
2022-10-11T17:28:10.500Z,102562.00
2022-10-11T17:30:37.392Z,102555.00
2022-10-11T17:33:04.013Z,102557.00
2022-10-11T17:35:31.223Z,102564.00
2022-10-11T17:37:59.389Z,102554.00
2022-10-11T17:40:28.807Z,102559.00
2022-10-11T17:42:55.300Z,102559.00
2022-10-11T17:45:21.751Z,102552.00
2022-10-11T17:47:48.256Z,102560.00
2022-10-11T17:50:14.692Z,102559.00
2022-10-11T17:52:41.541Z,102559.00
2022-10-11T17:55:08.112Z,102559.00
2022-10-11T17:57:34.538Z,102560.00
2022-10-11T18:00:03.809Z,102555.00
2022-10-11T18:02:30.234Z,102561.00
2022-10-11T18:04:56.766Z,102552.00
2022-10-11T18:07:24.164Z,102555.00
2022-10-11T18:09:50.695Z,102560.00
2022-10-11T18:12:17.260Z,102559.00
2022-10-11T18:14:43.729Z,102566.00
2022-10-11T18:17:10.175Z,102563.00
2022-10-11T18:19:36.632Z,102561.00
2022-10-11T18:22:06.757Z,102564.00
2022-10-11T18:24:33.634Z,102562.00
2022-10-11T18:27:00.130Z,102565.00
2022-10-11T18:29:26.730Z,102559.00
2022-10-11T18:31:53.307Z,102565.00
2022-10-11T18:34:19.938Z,102566.00
2022-10-11T18:36:46.468Z,102573.00
2022-10-11T18:39:14.449Z,102573.00
2022-10-11T18:41:44.307Z,102574.00
2022-10-11T18:44:13.752Z,102570.00
2022-10-11T18:46:40.673Z,102562.00
2022-10-11T18:49:07.111Z,102556.00
2022-10-11T18:51:35.148Z,102563.00
2022-10-11T18:54:02.080Z,102565.00
2022-10-11T18:56:28.989Z,102563.00
2022-10-11T18:58:56.246Z,102562.00
2022-10-11T19:01:24.401Z,102564.00
2022-10-11T19:03:56.423Z,102559.00
2022-10-11T19:06:24.556Z,102558.00
2022-10-11T19:08:53.183Z,102554.00
2022-10-11T19:11:25.175Z,102555.00
2022-10-11T19:14:02.035Z,102557.00
2022-10-11T19:16:32.312Z,102556.00
2022-10-11T19:18:58.828Z,102544.00
2022-10-11T19:21:25.365Z,102548.00
2022-10-11T19:23:52.234Z,102553.00
2022-10-11T19:26:30.087Z,102557.00
2022-10-11T19:28:58.197Z,102554.00
2022-10-11T19:31:24.817Z,102556.00
2022-10-11T19:33:51.696Z,102569.00
2022-10-11T19:36:20.031Z,102563.00
2022-10-11T19:38:48.237Z,102558.00
2022-10-11T19:41:15.859Z,102562.00
2022-10-11T19:43:42.868Z,102560.00
2022-10-11T19:46:10.788Z,102562.00
2022-10-11T19:48:42.731Z,102560.00
2022-10-11T19:51:13.677Z,102561.00
2022-10-11T19:53:40.375Z,102566.00
2022-10-11T19:56:08.448Z,102567.00
2022-10-11T19:58:35.295Z,102557.00
2022-10-11T20:01:06.298Z,102567.00
2022-10-11T20:03:33.317Z,102552.00
2022-10-11T20:06:00.496Z,102565.00
2022-10-11T20:08:28.469Z,102560.00
2022-10-11T20:10:54.965Z,102554.00
2022-10-11T20:13:21.461Z,102556.00
2022-10-11T20:15:47.887Z,102559.00
2022-10-11T20:18:14.313Z,102551.00
2022-10-11T20:20:50.482Z,102555.00
2022-10-11T20:23:18.238Z,102559.00
2022-10-11T20:25:45.125Z,102552.00
2022-10-11T20:28:11.632Z,102559.00
2022-10-11T20:30:42.289Z,102563.00
2022-10-11T20:33:08.828Z,102563.00
2022-10-11T20:35:35.936Z,102558.00
2022-10-11T20:38:02.571Z,102557.00
2022-10-11T20:40:28.994Z,102557.00
2022-10-11T20:42:55.431Z,102554.00
2022-10-11T20:45:21.842Z,102562.00
2022-10-11T20:47:48.360Z,102560.00
2022-10-11T20:50:16.649Z,102564.00
2022-10-11T20:52:44.891Z,102562.00
2022-10-11T20:55:11.333Z,102562.00
2022-10-11T20:57:37.763Z,102564.00
2022-10-11T21:00:04.797Z,102566.00
2022-10-11T21:02:31.409Z,102562.00
2022-10-11T21:04:58.855Z,102567.00
2022-10-11T21:07:25.316Z,102565.00
2022-10-11T21:09:51.757Z,102558.00
2022-10-11T21:12:18.205Z,102560.00
2022-10-11T21:14:44.615Z,102560.00
2022-10-11T21:17:11.145Z,102564.00
2022-10-11T21:19:37.568Z,102565.00
2022-10-11T21:22:04.040Z,102561.00
2022-10-11T21:24:30.612Z,102562.00
2022-10-11T21:27:00.431Z,102563.00
2022-10-11T21:29:27.340Z,102559.00
2022-10-11T21:31:53.768Z,102558.00
2022-10-11T21:34:20.182Z,102551.00
2022-10-11T21:36:46.698Z,102547.00
2022-10-11T21:39:13.165Z,102546.00
2022-10-11T21:41:42.100Z,102548.00
2022-10-11T21:44:08.623Z,102550.00
2022-10-11T21:49:22.387Z,102548.00
2022-10-11T21:51:49.071Z,102540.00
2022-10-11T21:54:15.900Z,102539.00
2022-10-11T21:56:42.594Z,102539.00
2022-10-11T21:59:12.033Z,102537.00
2022-10-11T22:01:39.951Z,102540.00
2022-10-11T22:04:09.439Z,102537.00
2022-10-11T22:06:36.455Z,102532.00
2022-10-11T22:09:03.910Z,102529.00
2022-10-11T22:11:30.396Z,102535.00
2022-10-11T22:13:57.058Z,102537.00
2022-10-11T22:16:23.544Z,102533.00
2022-10-11T22:18:49.985Z,102529.00
2022-10-11T22:21:17.684Z,102533.00
2022-10-11T22:23:44.896Z,102527.00
2022-10-11T22:26:13.134Z,102521.00
2022-10-11T22:28:39.596Z,102524.00
2022-10-11T22:31:06.292Z,102526.00
2022-10-11T22:33:32.860Z,102520.00
2022-10-11T22:36:00.584Z,102516.00
2022-10-11T22:38:27.367Z,102522.00
2022-10-11T22:40:54.000Z,102518.00
2022-10-11T22:43:20.694Z,102510.00
2022-10-11T22:45:47.103Z,102518.00
2022-10-11T22:48:13.534Z,102519.00
2022-10-11T22:50:39.999Z,102508.00
2022-10-11T22:53:06.763Z,102511.00
2022-10-11T22:55:33.357Z,102509.00
2022-10-11T22:57:59.902Z,102501.00
2022-10-11T23:00:26.426Z,102500.00
2022-10-11T23:02:52.882Z,102505.00
2022-10-11T23:05:19.487Z,102497.00
2022-10-11T23:07:46.381Z,102512.00
2022-10-11T23:10:13.023Z,102504.00
2022-10-11T23:12:39.436Z,102506.00
2022-10-11T23:15:06.086Z,102498.00
2022-10-11T23:17:32.559Z,102501.00
2022-10-11T23:19:58.996Z,102503.00
2022-10-11T23:22:25.415Z,102496.00
2022-10-11T23:24:51.958Z,102498.00
2022-10-11T23:27:18.383Z,102501.00
2022-10-11T23:29:44.844Z,102498.00
2022-10-11T23:32:11.697Z,102488.00
2022-10-11T23:34:38.285Z,102496.00
2022-10-11T23:37:05.858Z,102493.00
2022-10-11T23:39:32.336Z,102493.00
2022-10-11T23:41:58.779Z,102499.00
2022-10-11T23:44:25.208Z,102494.00
2022-10-11T23:46:52.158Z,102495.00
2022-10-11T23:49:18.609Z,102491.00
2022-10-11T23:51:45.021Z,102490.00
2022-10-11T23:54:11.819Z,102486.00
2022-10-11T23:56:38.328Z,102492.00
2022-10-11T23:59:04.777Z,102485.00
